ADDS METAR Data INFO
IDs: Format: Raw Decoded Include TAF

Data at: 0437 UTC 28 Jul 2017

KHRL 280352Z 15007KT 10SM CLR 26/25 A2995 RMK AO2 SLP142 T02610250
KHRL 280252Z 13010KT 10SM CLR 28/24 A2994 RMK AO2 SLP140 T02780244 51005
KHRL 280152Z 14011KT 10SM CLR 28/24 A2994 RMK AO2 SLP139 T02830239
KHRL 280052Z 14014KT 10SM CLR 31/23 A2994 RMK AO2 SLP138 T03060228
KHRL 272352Z 15017G22KT 10SM CLR 32/22 A2993 RMK AO2 SLP135 T03220222 10367 20322 55009
KHRL 272252Z 15017KT 10SM FEW047 34/22 A2993 RMK AO2 SLP135 T03440222
KHRL 272152Z 14016G24KT 10SM FEW046 34/22 A2995 RMK AO2 SLP140 T03440222
KHRL 272052Z 15014G21KT 10SM FEW055 35/22 A2996 RMK AO2 SLP144 T03500217 56018
KHRL 271952Z 13014G21KT 10SM FEW050 36/22 A2997 RMK AO2 SLP148 T03560217
KHRL 271852Z 12011KT 10SM FEW050 SCT065 35/22 A2999 RMK AO2 SLP155 T03500217
KHRL 271752Z 14011KT 10SM CLR 34/22 A3001 RMK AO2 SLP162 T03440222 10350 20239 58006
KHRL 271652Z 15012KT 10SM CLR 33/22 A3002 RMK AO2 SLP166 T03330222
KHRL 271552Z 16016KT 10SM CLR 33/22 A3003 RMK AO2 SLP168 T03280222
KHRL 271452Z 19009KT 10SM CLR 30/24 A3003 RMK AO2 SLP168 T03000244 51010
KHRL 271352Z 17008KT 10SM CLR 27/26 A3002 RMK AO2 SLP164 T02720256
KHRL 271252Z 13006KT 10SM CLR 25/25 A3001 RMK AO2 SLP162 T02500250
KHRL 271152Z 15004KT 10SM CLR 24/24 A3000 RMK AO2 SLP158 70086 T02390239 10250 20233 55000
KHRL 271052Z 14005KT 10SM CLR 24/24 A2999 RMK AO2 SLP155 T02440239
KHRL 270952Z AUTO 15005KT 10SM CLR 23/23 A2999 RMK AO2 SLP156 T02330233
KHRL 270852Z AUTO 11004KT 10SM CLR 24/23 A3000 RMK AO2 SLP158 T02390233 56012
KHRL 270752Z AUTO 00000KT 10SM CLR 24/23 A3001 RMK AO2 SLP162 T02390233
KHRL 270652Z AUTO 00000KT 10SM CLR 24/24 A3002 RMK AO2 SLP166 T02440239
KHRL 270552Z AUTO 00000KT 10SM CLR 24/23 A3003 RMK AO2 SLP170 T02440233 10294 20244 403560233 50001
KHRL 270452Z AUTO 15006KT 10SM CLR 25/24 A3005 RMK AO2 SLP175 T02500239
KHRL 270352Z 14009KT 10SM CLR 27/24 A3005 RMK AO2 SLP176 T02670244
KHRL 270252Z 14006KT 10SM CLR 27/24 A3003 RMK AO2 SLP169 T02670244 51015
KHRL 270152Z 14008KT 10SM CLR 28/24 A3002 RMK AO2 SLP165 T02780244
KHRL 270052Z 12010KT 10SM CLR 29/24 A3000 RMK AO2 SLP159 T02940244
KHRL 262352Z 10013KT 10SM CLR 29/24 A2999 RMK AO2 SLP154 60057 T02940244 10300 20233 56013
KHRL 262252Z 08014KT 10SM CLR 30/25 A2999 RMK AO2 SLP156 T03000250
KHRL 262152Z 09009KT 10SM CLR 29/24 A3000 RMK AO2 SLP160 T02940244
KHRL 262052Z 09009KT 10SM CLR 27/24 A3003 RMK AO2 SLP167 60057 T02670239 58008
KHRL 261952Z 05005KT 10SM CLR 25/24 A3005 RMK AO2 LTG DSNT NW RAE08 TSE24 SLP174 P0000 T02500239
KHRL 261942Z 04008KT 10SM CLR 25/24 A3005 RMK AO2 LTG DSNT NW-NE RAE08 TSE24 P0000 T02500239
KHRL 261930Z 02004KT 10SM VCTS CLR 25/24 A3006 RMK AO2 LTG DSNT NW-E RAE08 TSE24 P0000 T02500239
KHRL 261852Z VRB05KT 4SM +TSRA BR FEW039 BKN075 OVC085 25/23 A3009 RMK AO2 PK WND 20028/1807 WSHFT 1800 LTG DSNT ALQDS SLP187 P0057 T02500228
KHRL 261842Z 00000KT 3SM TSRA BR BKN045 BKN080 OVC100 25/23 A3008 RMK AO2 PK WND 20028/1807 WSHFT 1800 LTG DSNT ALQDS P0055 T02500233
KHRL 261838Z 18003KT 1 3/4SM +TSRA BKN039 OVC080 26/23 A3007 RMK AO2 PK WND 20028/1807 WSHFT 1800 LTG DSNT ALQDS P0054 T02560228
KHRL 261824Z 22009KT 2SM TSRA BR FEW027 BKN040 OVC075 24/23 A3007 RMK AO2 PK WND 20028/1807 WSHFT 1800 LTG DSNT ALQDS P0042 T02390233
KHRL 261814Z 26021G28KT 3/4SM +TSRA BR SCT027 BKN040 OVC100 24/23 A3007 RMK AO2 PK WND 20028/1807 WSHFT 1800 LTG DSNT ALQDS P0035 T02390228
KHRL 261806Z 20021G28KT 1 1/2SM +TSRA BR FEW025 BKN040 OVC100 26/24 A3008 RMK AO2 PK WND 19028/1801 LTG DSNT ALQDS PRESRR P0011 T02560239
KHRL 261755Z 32004KT 3SM -TSRA FEW027 BKN075 OVC100 27/24 A3005 RMK AO2 LTG DSNT ALQDS P0000 T02720244
KHRL 261752Z 33006KT 1SM TSRA BR SCT029 BKN050 OVC100 27/24 A3005 RMK AO2 PK WND 22031/1728 LTG DSNT N AND NE RAB27 TSB22 SLP175 P0029 60029 T02670244 10356 20250 58008
KHRL 261742Z 00000KT 3/4SM +TSRA BR SCT026 BKN039 OVC075 26/24 A3006 RMK AO2 PK WND 22031/1728 LTG DSNT N RAB27 TSB22 P0023 T02610239
KHRL 261737Z 21011G31KT 2 1/2SM +TSRA FEW021 BKN041 OVC085 27/24 A3007 RMK AO2 PK WND 22031/1728 LTG DSNT N AND S RAB27 TSB22 P0009 T02670239
KHRL 261728Z 22022G31KT 10SM -TSRA BKN041 BKN050 BKN080 31/23 A3006 RMK AO2 PK WND 22031/1728 LTG DSNT N AND S RAB27 TSB22 P0000 T03060233
KHRL 261720Z 21012G20KT 10SM VCTS BKN041 BKN055 BKN110 33/23 A3006 RMK AO2 LTG DSNT N AND S T03330233
KHRL 261652Z 18012KT 10SM SCT037 BKN044 BKN055 33/24 A3007 RMK AO2 LTG DSNT N AND NE SLP181 T03330239